sensor_id;sensor_type;location;lat;lon;timestamp;temperature;humidity
64880;HTU21D;51374;45.124;36.712;2022-08-30T00:00:37;23.10;75.49
64880;HTU21D;51374;45.124;36.712;2022-08-30T00:03:22;23.11;75.49
64880;HTU21D;51374;45.124;36.712;2022-08-30T00:05:48;23.11;75.50
64880;HTU21D;51374;45.124;36.712;2022-08-30T00:08:14;23.09;75.46
64880;HTU21D;51374;45.124;36.712;2022-08-30T00:10:41;23.06;75.47
64880;HTU21D;51374;45.124;36.712;2022-08-30T00:13:08;23.03;75.53
64880;HTU21D;51374;45.124;36.712;2022-08-30T00:15:37;23.00;75.55
64880;HTU21D;51374;45.124;36.712;2022-08-30T00:18:04;22.98;75.57
64880;HTU21D;51374;45.124;36.712;2022-08-30T00:20:31;22.96;75.57
64880;HTU21D;51374;45.124;36.712;2022-08-30T00:22:58;22.92;75.56
64880;HTU21D;51374;45.124;36.712;2022-08-30T00:25:25;22.91;75.58
64880;HTU21D;51374;45.124;36.712;2022-08-30T00:27:51;22.87;75.60
64880;HTU21D;51374;45.124;36.712;2022-08-30T00:30:19;22.84;75.62
64880;HTU21D;51374;45.124;36.712;2022-08-30T00:32:45;22.80;75.67
64880;HTU21D;51374;45.124;36.712;2022-08-30T00:35:13;22.76;75.67
64880;HTU21D;51374;45.124;36.712;2022-08-30T00:37:41;22.69;75.71
64880;HTU21D;51374;45.124;36.712;2022-08-30T00:40:08;22.65;75.75
64880;HTU21D;51374;45.124;36.712;2022-08-30T00:42:35;22.62;75.77
64880;HTU21D;51374;45.124;36.712;2022-08-30T00:47:37;22.56;75.82
64880;HTU21D;51374;45.124;36.712;2022-08-30T00:50:04;22.54;75.83
64880;HTU21D;51374;45.124;36.712;2022-08-30T00:52:34;22.49;75.86
64880;HTU21D;51374;45.124;36.712;2022-08-30T00:55:02;22.48;75.91
64880;HTU21D;51374;45.124;36.712;2022-08-30T00:57:30;22.46;75.93
64880;HTU21D;51374;45.124;36.712;2022-08-30T00:59:56;22.47;76.02
64880;HTU21D;51374;45.124;36.712;2022-08-30T01:02:23;22.42;76.09
64880;HTU21D;51374;45.124;36.712;2022-08-30T01:04:50;22.42;76.21
64880;HTU21D;51374;45.124;36.712;2022-08-30T01:07:17;22.42;76.15
64880;HTU21D;51374;45.124;36.712;2022-08-30T01:09:43;22.40;76.20
64880;HTU21D;51374;45.124;36.712;2022-08-30T01:12:10;22.41;76.19
64880;HTU21D;51374;45.124;36.712;2022-08-30T01:14:36;22.40;76.22
64880;HTU21D;51374;45.124;36.712;2022-08-30T01:17:03;22.41;76.25
64880;HTU21D;51374;45.124;36.712;2022-08-30T01:19:46;22.41;76.24
64880;HTU21D;51374;45.124;36.712;2022-08-30T01:24:39;22.38;76.30
64880;HTU21D;51374;45.124;36.712;2022-08-30T01:27:05;22.39;76.30
64880;HTU21D;51374;45.124;36.712;2022-08-30T01:29:31;22.40;76.36
64880;HTU21D;51374;45.124;36.712;2022-08-30T01:31:58;22.42;76.40
64880;HTU21D;51374;45.124;36.712;2022-08-30T01:34:24;22.42;76.36
64880;HTU21D;51374;45.124;36.712;2022-08-30T01:36:50;22.46;76.39
64880;HTU21D;51374;45.124;36.712;2022-08-30T01:39:17;22.49;76.41
64880;HTU21D;51374;45.124;36.712;2022-08-30T01:41:43;22.51;76.36
64880;HTU21D;51374;45.124;36.712;2022-08-30T01:44:12;22.56;76.37
64880;HTU21D;51374;45.124;36.712;2022-08-30T01:46:45;22.60;76.34
64880;HTU21D;51374;45.124;36.712;2022-08-30T01:49:13;22.62;76.34
64880;HTU21D;51374;45.124;36.712;2022-08-30T01:51:40;22.62;76.35
64880;HTU21D;51374;45.124;36.712;2022-08-30T01:54:06;22.65;76.41
64880;HTU21D;51374;45.124;36.712;2022-08-30T01:56:33;22.67;76.50
64880;HTU21D;51374;45.124;36.712;2022-08-30T01:58:59;22.72;76.59
64880;HTU21D;51374;45.124;36.712;2022-08-30T02:01:27;22.79;76.66
64880;HTU21D;51374;45.124;36.712;2022-08-30T02:03:55;22.87;76.70
64880;HTU21D;51374;45.124;36.712;2022-08-30T02:06:22;22.94;76.71
64880;HTU21D;51374;45.124;36.712;2022-08-30T02:08:48;22.99;76.69
64880;HTU21D;51374;45.124;36.712;2022-08-30T02:11:15;23.00;76.73
64880;HTU21D;51374;45.124;36.712;2022-08-30T02:13:42;23.00;76.81
64880;HTU21D;51374;45.124;36.712;2022-08-30T02:16:10;23.00;76.89
64880;HTU21D;51374;45.124;36.712;2022-08-30T02:18:37;23.00;76.94
64880;HTU21D;51374;45.124;36.712;2022-08-30T02:21:07;23.00;77.05
64880;HTU21D;51374;45.124;36.712;2022-08-30T02:23:34;23.00;77.11
64880;HTU21D;51374;45.124;36.712;2022-08-30T02:26:00;23.01;77.15
64880;HTU21D;51374;45.124;36.712;2022-08-30T02:28:26;23.02;77.26
64880;HTU21D;51374;45.124;36.712;2022-08-30T02:30:53;22.99;77.34
64880;HTU21D;51374;45.124;36.712;2022-08-30T02:33:19;22.99;77.44
64880;HTU21D;51374;45.124;36.712;2022-08-30T02:35:45;22.98;77.52
64880;HTU21D;51374;45.124;36.712;2022-08-30T02:38:12;22.97;77.59
64880;HTU21D;51374;45.124;36.712;2022-08-30T02:40:38;22.97;77.68
64880;HTU21D;51374;45.124;36.712;2022-08-30T02:43:04;22.95;77.72
64880;HTU21D;51374;45.124;36.712;2022-08-30T02:45:31;22.95;77.76
64880;HTU21D;51374;45.124;36.712;2022-08-30T02:47:57;22.94;77.84
64880;HTU21D;51374;45.124;36.712;2022-08-30T02:50:23;22.91;77.92
64880;HTU21D;51374;45.124;36.712;2022-08-30T02:52:49;22.88;77.98
64880;HTU21D;51374;45.124;36.712;2022-08-30T02:55:16;22.87;78.07
64880;HTU21D;51374;45.124;36.712;2022-08-30T02:57:42;22.85;78.13
64880;HTU21D;51374;45.124;36.712;2022-08-30T03:00:11;22.86;78.20
64880;HTU21D;51374;45.124;36.712;2022-08-30T03:02:39;22.86;78.25
64880;HTU21D;51374;45.124;36.712;2022-08-30T03:05:07;22.85;78.30
64880;HTU21D;51374;45.124;36.712;2022-08-30T03:07:33;22.85;78.34
64880;HTU21D;51374;45.124;36.712;2022-08-30T03:09:59;22.85;78.35
64880;HTU21D;51374;45.124;36.712;2022-08-30T03:12:25;22.86;78.40
64880;HTU21D;51374;45.124;36.712;2022-08-30T03:14:51;22.87;78.45
64880;HTU21D;51374;45.124;36.712;2022-08-30T03:17:18;22.88;78.55
64880;HTU21D;51374;45.124;36.712;2022-08-30T03:19:44;22.92;78.75
64880;HTU21D;51374;45.124;36.712;2022-08-30T03:22:11;22.94;78.75
64880;HTU21D;51374;45.124;36.712;2022-08-30T03:24:37;22.99;78.83
64880;HTU21D;51374;45.124;36.712;2022-08-30T03:27:03;23.07;78.82
64880;HTU21D;51374;45.124;36.712;2022-08-30T03:29:29;23.11;78.88
64880;HTU21D;51374;45.124;36.712;2022-08-30T03:31:57;23.16;79.08
64880;HTU21D;51374;45.124;36.712;2022-08-30T03:34:24;23.22;78.87
64880;HTU21D;51374;45.124;36.712;2022-08-30T03:36:52;23.27;78.80
64880;HTU21D;51374;45.124;36.712;2022-08-30T03:39:20;23.34;78.72
64880;HTU21D;51374;45.124;36.712;2022-08-30T03:41:46;23.40;78.62
64880;HTU21D;51374;45.124;36.712;2022-08-30T03:44:12;23.47;78.54
64880;HTU21D;51374;45.124;36.712;2022-08-30T03:46:39;23.54;78.40
64880;HTU21D;51374;45.124;36.712;2022-08-30T03:49:05;23.59;78.31
64880;HTU21D;51374;45.124;36.712;2022-08-30T03:51:32;23.67;78.27
64880;HTU21D;51374;45.124;36.712;2022-08-30T03:53:59;23.72;78.19
64880;HTU21D;51374;45.124;36.712;2022-08-30T03:56:24;23.80;78.14
64880;HTU21D;51374;45.124;36.712;2022-08-30T03:58:51;23.86;78.11
64880;HTU21D;51374;45.124;36.712;2022-08-30T04:01:17;23.91;78.02
64880;HTU21D;51374;45.124;36.712;2022-08-30T04:03:43;23.99;77.98
64880;HTU21D;51374;45.124;36.712;2022-08-30T04:06:09;24.01;78.03
64880;HTU21D;51374;45.124;36.712;2022-08-30T04:08:35;24.08;78.01
64880;HTU21D;51374;45.124;36.712;2022-08-30T04:11:02;24.15;77.96
64880;HTU21D;51374;45.124;36.712;2022-08-30T04:13:28;24.23;77.92
64880;HTU21D;51374;45.124;36.712;2022-08-30T04:15:54;24.30;77.79
64880;HTU21D;51374;45.124;36.712;2022-08-30T04:18:21;24.36;77.70
64880;HTU21D;51374;45.124;36.712;2022-08-30T04:20:47;24.44;77.58
64880;HTU21D;51374;45.124;36.712;2022-08-30T04:23:13;24.50;77.40
64880;HTU21D;51374;45.124;36.712;2022-08-30T04:25:40;24.59;77.26
64880;HTU21D;51374;45.124;36.712;2022-08-30T04:28:07;24.68;77.11
64880;HTU21D;51374;45.124;36.712;2022-08-30T04:30:35;24.78;76.89
64880;HTU21D;51374;45.124;36.712;2022-08-30T04:33:03;24.85;76.75
64880;HTU21D;51374;45.124;36.712;2022-08-30T04:35:28;24.97;76.56
64880;HTU21D;51374;45.124;36.712;2022-08-30T04:37:56;25.08;76.37
64880;HTU21D;51374;45.124;36.712;2022-08-30T04:40:21;25.17;76.15
64880;HTU21D;51374;45.124;36.712;2022-08-30T04:42:48;25.27;75.96
64880;HTU21D;51374;45.124;36.712;2022-08-30T04:45:19;25.36;75.77
64880;HTU21D;51374;45.124;36.712;2022-08-30T04:47:45;25.47;75.57
64880;HTU21D;51374;45.124;36.712;2022-08-30T04:50:15;25.57;75.39
64880;HTU21D;51374;45.124;36.712;2022-08-30T04:52:42;25.66;75.22
64880;HTU21D;51374;45.124;36.712;2022-08-30T04:55:08;25.76;75.04
64880;HTU21D;51374;45.124;36.712;2022-08-30T04:57:36;25.87;74.90
64880;HTU21D;51374;45.124;36.712;2022-08-30T05:00:08;25.95;74.70
64880;HTU21D;51374;45.124;36.712;2022-08-30T05:02:36;26.06;74.54
64880;HTU21D;51374;45.124;36.712;2022-08-30T05:05:03;26.13;74.40
64880;HTU21D;51374;45.124;36.712;2022-08-30T05:07:47;26.24;74.23
64880;HTU21D;51374;45.124;36.712;2022-08-30T05:10:13;26.34;74.14
64880;HTU21D;51374;45.124;36.712;2022-08-30T05:12:40;26.42;74.06
64880;HTU21D;51374;45.124;36.712;2022-08-30T05:15:06;26.53;74.00
64880;HTU21D;51374;45.124;36.712;2022-08-30T05:17:32;26.64;73.87
64880;HTU21D;51374;45.124;36.712;2022-08-30T05:20:00;26.71;73.77
64880;HTU21D;51374;45.124;36.712;2022-08-30T05:22:28;26.77;73.57
64880;HTU21D;51374;45.124;36.712;2022-08-30T05:24:54;26.81;73.30
64880;HTU21D;51374;45.124;36.712;2022-08-30T05:27:20;26.89;73.35
64880;HTU21D;51374;45.124;36.712;2022-08-30T05:29:46;27.01;73.22
64880;HTU21D;51374;45.124;36.712;2022-08-30T05:32:12;27.12;72.92
64880;HTU21D;51374;45.124;36.712;2022-08-30T05:34:37;27.21;72.51
64880;HTU21D;51374;45.124;36.712;2022-08-30T05:37:03;27.29;72.35
64880;HTU21D;51374;45.124;36.712;2022-08-30T05:39:29;27.39;72.22
64880;HTU21D;51374;45.124;36.712;2022-08-30T05:41:56;27.44;71.94
64880;HTU21D;51374;45.124;36.712;2022-08-30T05:44:22;27.52;71.58
64880;HTU21D;51374;45.124;36.712;2022-08-30T05:46:49;27.57;71.48
64880;HTU21D;51374;45.124;36.712;2022-08-30T05:49:15;27.65;71.45
64880;HTU21D;51374;45.124;36.712;2022-08-30T05:51:41;27.78;71.44
64880;HTU21D;51374;45.124;36.712;2022-08-30T05:54:07;27.84;70.90
64880;HTU21D;51374;45.124;36.712;2022-08-30T05:56:36;27.94;70.65
64880;HTU21D;51374;45.124;36.712;2022-08-30T05:59:07;28.01;70.43
64880;HTU21D;51374;45.124;36.712;2022-08-30T06:01:39;28.10;70.21
64880;HTU21D;51374;45.124;36.712;2022-08-30T06:04:06;28.18;70.16
64880;HTU21D;51374;45.124;36.712;2022-08-30T06:06:34;28.28;69.98
64880;HTU21D;51374;45.124;36.712;2022-08-30T06:09:01;28.34;69.68
64880;HTU21D;51374;45.124;36.712;2022-08-30T06:11:27;28.42;69.58
64880;HTU21D;51374;45.124;36.712;2022-08-30T06:13:54;28.49;69.14
64880;HTU21D;51374;45.124;36.712;2022-08-30T06:16:22;28.55;68.55
64880;HTU21D;51374;45.124;36.712;2022-08-30T06:18:49;28.65;68.62
64880;HTU21D;51374;45.124;36.712;2022-08-30T06:21:20;28.75;68.18
64880;HTU21D;51374;45.124;36.712;2022-08-30T06:23:47;28.84;68.14
64880;HTU21D;51374;45.124;36.712;2022-08-30T06:26:13;28.93;68.10
64880;HTU21D;51374;45.124;36.712;2022-08-30T06:28:39;29.03;67.84
64880;HTU21D;51374;45.124;36.712;2022-08-30T06:31:07;29.09;67.91
64880;HTU21D;51374;45.124;36.712;2022-08-30T06:33:33;29.17;67.73
64880;HTU21D;51374;45.124;36.712;2022-08-30T06:38:29;29.30;67.64
64880;HTU21D;51374;45.124;36.712;2022-08-30T06:40:55;29.41;67.62
64880;HTU21D;51374;45.124;36.712;2022-08-30T06:43:21;29.46;67.68
64880;HTU21D;51374;45.124;36.712;2022-08-30T06:45:47;29.52;67.71
64880;HTU21D;51374;45.124;36.712;2022-08-30T06:48:13;29.57;67.77
64880;HTU21D;51374;45.124;36.712;2022-08-30T06:50:39;29.65;67.75
64880;HTU21D;51374;45.124;36.712;2022-08-30T06:53:07;29.68;67.81
64880;HTU21D;51374;45.124;36.712;2022-08-30T06:55:34;29.74;67.85
64880;HTU21D;51374;45.124;36.712;2022-08-30T06:58:01;29.76;67.90
64880;HTU21D;51374;45.124;36.712;2022-08-30T07:00:27;29.77;67.93
64880;HTU21D;51374;45.124;36.712;2022-08-30T07:02:53;29.79;67.93
64880;HTU21D;51374;45.124;36.712;2022-08-30T07:05:20;29.80;67.97
64880;HTU21D;51374;45.124;36.712;2022-08-30T07:07:49;29.82;68.00
64880;HTU21D;51374;45.124;36.712;2022-08-30T07:10:18;29.85;68.04
64880;HTU21D;51374;45.124;36.712;2022-08-30T07:12:44;29.88;68.05
64880;HTU21D;51374;45.124;36.712;2022-08-30T07:15:10;29.90;68.03
64880;HTU21D;51374;45.124;36.712;2022-08-30T07:17:36;29.94;67.97
64880;HTU21D;51374;45.124;36.712;2022-08-30T07:20:21;29.95;67.93
64880;HTU21D;51374;45.124;36.712;2022-08-30T07:22:47;29.98;67.93
64880;HTU21D;51374;45.124;36.712;2022-08-30T07:25:14;30.03;67.89
64880;HTU21D;51374;45.124;36.712;2022-08-30T07:27:41;30.08;67.88
64880;HTU21D;51374;45.124;36.712;2022-08-30T07:30:07;30.13;67.81
64880;HTU21D;51374;45.124;36.712;2022-08-30T07:32:34;30.20;67.76
64880;HTU21D;51374;45.124;36.712;2022-08-30T07:34:59;30.25;67.68
64880;HTU21D;51374;45.124;36.712;2022-08-30T07:37:25;30.32;67.65
64880;HTU21D;51374;45.124;36.712;2022-08-30T07:39:51;30.37;67.62
64880;HTU21D;51374;45.124;36.712;2022-08-30T07:42:17;30.42;67.58
64880;HTU21D;51374;45.124;36.712;2022-08-30T07:44:44;30.48;67.49
64880;HTU21D;51374;45.124;36.712;2022-08-30T07:47:11;30.51;67.43
64880;HTU21D;51374;45.124;36.712;2022-08-30T07:49:37;30.56;67.41
64880;HTU21D;51374;45.124;36.712;2022-08-30T07:52:03;30.60;67.38
64880;HTU21D;51374;45.124;36.712;2022-08-30T07:54:29;30.62;67.36
64880;HTU21D;51374;45.124;36.712;2022-08-30T07:56:55;30.65;67.34
64880;HTU21D;51374;45.124;36.712;2022-08-30T07:59:22;30.69;67.36
64880;HTU21D;51374;45.124;36.712;2022-08-30T08:01:48;30.74;67.32
64880;HTU21D;51374;45.124;36.712;2022-08-30T08:04:14;30.78;67.33
64880;HTU21D;51374;45.124;36.712;2022-08-30T08:06:40;30.83;67.30
64880;HTU21D;51374;45.124;36.712;2022-08-30T08:09:06;30.86;67.30
64880;HTU21D;51374;45.124;36.712;2022-08-30T08:11:34;30.91;67.29
64880;HTU21D;51374;45.124;36.712;2022-08-30T08:14:01;30.92;67.27
64880;HTU21D;51374;45.124;36.712;2022-08-30T08:16:30;30.94;67.29
64880;HTU21D;51374;45.124;36.712;2022-08-30T08:18:56;30.99;67.29
64880;HTU21D;51374;45.124;36.712;2022-08-30T08:21:23;31.04;67.27
64880;HTU21D;51374;45.124;36.712;2022-08-30T08:23:50;31.08;67.23
64880;HTU21D;51374;45.124;36.712;2022-08-30T08:26:18;31.13;67.20
64880;HTU21D;51374;45.124;36.712;2022-08-30T08:28:44;31.15;67.17
64880;HTU21D;51374;45.124;36.712;2022-08-30T08:31:20;31.20;67.17
64880;HTU21D;51374;45.124;36.712;2022-08-30T08:33:46;31.24;67.16
64880;HTU21D;51374;45.124;36.712;2022-08-30T08:36:12;31.28;67.14
64880;HTU21D;51374;45.124;36.712;2022-08-30T08:38:38;31.33;67.10
64880;HTU21D;51374;45.124;36.712;2022-08-30T08:43:39;31.39;66.99
64880;HTU21D;51374;45.124;36.712;2022-08-30T08:51:06;31.42;66.88
64880;HTU21D;51374;45.124;36.712;2022-08-30T08:56:48;31.48;66.78
64880;HTU21D;51374;45.124;36.712;2022-08-30T08:59:15;31.50;66.72
64880;HTU21D;51374;45.124;36.712;2022-08-30T09:01:41;31.52;66.71
64880;HTU21D;51374;45.124;36.712;2022-08-30T09:04:12;31.56;66.66
64880;HTU21D;51374;45.124;36.712;2022-08-30T09:06:56;31.59;66.62
64880;HTU21D;51374;45.124;36.712;2022-08-30T09:09:29;31.65;66.56
64880;HTU21D;51374;45.124;36.712;2022-08-30T09:11:56;31.69;66.55
64880;HTU21D;51374;45.124;36.712;2022-08-30T09:14:25;31.73;66.49
64880;HTU21D;51374;45.124;36.712;2022-08-30T09:16:57;31.76;66.44
64880;HTU21D;51374;45.124;36.712;2022-08-30T09:19:30;31.81;66.41
64880;HTU21D;51374;45.124;36.712;2022-08-30T09:21:58;31.85;66.38
64880;HTU21D;51374;45.124;36.712;2022-08-30T09:24:25;31.88;66.28
64880;HTU21D;51374;45.124;36.712;2022-08-30T09:26:51;31.92;66.24
64880;HTU21D;51374;45.124;36.712;2022-08-30T09:29:18;31.93;66.27
64880;HTU21D;51374;45.124;36.712;2022-08-30T09:31:50;31.99;66.20
64880;HTU21D;51374;45.124;36.712;2022-08-30T09:34:21;31.99;66.19
64880;HTU21D;51374;45.124;36.712;2022-08-30T09:36:51;31.99;66.11
64880;HTU21D;51374;45.124;36.712;2022-08-30T09:39:24;31.97;66.10
64880;HTU21D;51374;45.124;36.712;2022-08-30T09:41:52;31.97;66.13
64880;HTU21D;51374;45.124;36.712;2022-08-30T09:44:21;32.00;66.04
64880;HTU21D;51374;45.124;36.712;2022-08-30T09:46:57;32.08;65.98
64880;HTU21D;51374;45.124;36.712;2022-08-30T09:49:38;32.15;65.86
64880;HTU21D;51374;45.124;36.712;2022-08-30T10:00:37;32.44;65.51
64880;HTU21D;51374;45.124;36.712;2022-08-30T10:10:09;32.57;65.19
64880;HTU21D;51374;45.124;36.712;2022-08-30T10:13:00;32.59;65.14
64880;HTU21D;51374;45.124;36.712;2022-08-30T10:16:13;32.58;65.11
64880;HTU21D;51374;45.124;36.712;2022-08-30T10:21:06;32.49;65.18
64880;HTU21D;51374;45.124;36.712;2022-08-30T10:23:41;32.49;65.13
64880;HTU21D;51374;45.124;36.712;2022-08-30T10:29:13;32.60;65.00
64880;HTU21D;51374;45.124;36.712;2022-08-30T10:31:50;32.67;64.89
64880;HTU21D;51374;45.124;36.712;2022-08-30T10:34:28;32.70;64.76
64880;HTU21D;51374;45.124;36.712;2022-08-30T10:37:06;32.70;64.73
64880;HTU21D;51374;45.124;36.712;2022-08-30T10:39:39;32.69;64.72
64880;HTU21D;51374;45.124;36.712;2022-08-30T10:45:17;32.74;64.63
64880;HTU21D;51374;45.124;36.712;2022-08-30T10:48:07;32.79;64.54
64880;HTU21D;51374;45.124;36.712;2022-08-30T10:50:47;32.84;64.47
64880;HTU21D;51374;45.124;36.712;2022-08-30T10:53:46;32.90;64.34
64880;HTU21D;51374;45.124;36.712;2022-08-30T10:56:16;32.94;64.30
64880;HTU21D;51374;45.124;36.712;2022-08-30T10:58:45;32.98;64.34
64880;HTU21D;51374;45.124;36.712;2022-08-30T11:04:14;33.07;64.09
64880;HTU21D;51374;45.124;36.712;2022-08-30T11:12:20;33.34;63.82
64880;HTU21D;51374;45.124;36.712;2022-08-30T11:14:47;33.43;63.74
64880;HTU21D;51374;45.124;36.712;2022-08-30T11:17:39;33.51;63.59
64880;HTU21D;51374;45.124;36.712;2022-08-30T11:20:42;33.55;63.48
64880;HTU21D;51374;45.124;36.712;2022-08-30T11:23:27;33.62;63.39
64880;HTU21D;51374;45.124;36.712;2022-08-30T11:26:08;33.66;63.37
64880;HTU21D;51374;45.124;36.712;2022-08-30T11:31:31;33.73;63.15
64880;HTU21D;51374;45.124;36.712;2022-08-30T11:33:59;33.74;63.23
64880;HTU21D;51374;45.124;36.712;2022-08-30T11:41:42;33.87;62.95
64880;HTU21D;51374;45.124;36.712;2022-08-30T11:46:48;33.93;62.88
64880;HTU21D;51374;45.124;36.712;2022-08-30T11:51:59;33.78;62.94
64880;HTU21D;51374;45.124;36.712;2022-08-30T11:57:14;33.72;62.89
64880;HTU21D;51374;45.124;36.712;2022-08-30T12:02:49;33.64;62.86
64880;HTU21D;51374;45.124;36.712;2022-08-30T12:08:52;33.29;63.29
64880;HTU21D;51374;45.124;36.712;2022-08-30T12:16:12;33.38;63.24
64880;HTU21D;51374;45.124;36.712;2022-08-30T12:18:51;33.42;63.24
64880;HTU21D;51374;45.124;36.712;2022-08-30T12:24:20;33.52;63.14
64880;HTU21D;51374;45.124;36.712;2022-08-30T12:26:49;33.59;63.10
64880;HTU21D;51374;45.124;36.712;2022-08-30T12:29:21;33.57;62.98
64880;HTU21D;51374;45.124;36.712;2022-08-30T12:31:58;33.51;63.05
64880;HTU21D;51374;45.124;36.712;2022-08-30T12:34:36;33.49;63.08
64880;HTU21D;51374;45.124;36.712;2022-08-30T12:37:29;33.53;63.11
64880;HTU21D;51374;45.124;36.712;2022-08-30T12:40:20;33.59;63.02
64880;HTU21D;51374;45.124;36.712;2022-08-30T12:42:55;33.61;62.99
64880;HTU21D;51374;45.124;36.712;2022-08-30T12:45:26;33.63;62.90
64880;HTU21D;51374;45.124;36.712;2022-08-30T12:50:35;33.60;62.89
64880;HTU21D;51374;45.124;36.712;2022-08-30T12:53:07;33.52;62.91
64880;HTU21D;51374;45.124;36.712;2022-08-30T12:56:10;33.42;63.11
64880;HTU21D;51374;45.124;36.712;2022-08-30T12:58:53;33.41;63.23
64880;HTU21D;51374;45.124;36.712;2022-08-30T13:01:32;33.46;63.24
64880;HTU21D;51374;45.124;36.712;2022-08-30T13:04:21;33.58;63.07
64880;HTU21D;51374;45.124;36.712;2022-08-30T13:06:52;33.68;62.89
64880;HTU21D;51374;45.124;36.712;2022-08-30T13:09:23;33.74;62.50
64880;HTU21D;51374;45.124;36.712;2022-08-30T13:11:52;33.70;62.16
64880;HTU21D;51374;45.124;36.712;2022-08-30T13:14:31;33.72;61.74
64880;HTU21D;51374;45.124;36.712;2022-08-30T13:20:02;33.74;60.41
64880;HTU21D;51374;45.124;36.712;2022-08-30T13:22:39;33.73;60.32
64880;HTU21D;51374;45.124;36.712;2022-08-30T13:25:08;33.68;60.04
64880;HTU21D;51374;45.124;36.712;2022-08-30T13:27:36;33.66;59.88
64880;HTU21D;51374;45.124;36.712;2022-08-30T13:30:21;33.67;59.38
64880;HTU21D;51374;45.124;36.712;2022-08-30T13:32:47;33.63;58.81
64880;HTU21D;51374;45.124;36.712;2022-08-30T13:35:13;33.56;58.25
64880;HTU21D;51374;45.124;36.712;2022-08-30T13:37:40;33.45;57.81
64880;HTU21D;51374;45.124;36.712;2022-08-30T13:40:08;33.38;58.04
64880;HTU21D;51374;45.124;36.712;2022-08-30T13:42:34;33.34;57.90
64880;HTU21D;51374;45.124;36.712;2022-08-30T13:45:01;33.25;58.02
64880;HTU21D;51374;45.124;36.712;2022-08-30T13:47:28;33.11;57.27
64880;HTU21D;51374;45.124;36.712;2022-08-30T13:49:55;32.90;57.72
64880;HTU21D;51374;45.124;36.712;2022-08-30T13:52:21;32.78;57.96
64880;HTU21D;51374;45.124;36.712;2022-08-30T13:54:52;32.73;57.96
64880;HTU21D;51374;45.124;36.712;2022-08-30T13:57:21;32.74;57.81
64880;HTU21D;51374;45.124;36.712;2022-08-30T13:59:47;32.70;57.28
64880;HTU21D;51374;45.124;36.712;2022-08-30T14:02:13;32.68;57.40
64880;HTU21D;51374;45.124;36.712;2022-08-30T14:04:39;32.64;57.55
64880;HTU21D;51374;45.124;36.712;2022-08-30T14:07:08;32.58;57.61
64880;HTU21D;51374;45.124;36.712;2022-08-30T14:09:34;32.52;57.81
64880;HTU21D;51374;45.124;36.712;2022-08-30T14:12:00;32.41;57.89
64880;HTU21D;51374;45.124;36.712;2022-08-30T14:14:26;32.30;58.00
64880;HTU21D;51374;45.124;36.712;2022-08-30T14:16:52;32.17;58.28
64880;HTU21D;51374;45.124;36.712;2022-08-30T14:19:18;32.02;58.30
64880;HTU21D;51374;45.124;36.712;2022-08-30T14:21:44;31.87;58.61
64880;HTU21D;51374;45.124;36.712;2022-08-30T14:24:11;31.78;58.86
64880;HTU21D;51374;45.124;36.712;2022-08-30T14:26:40;31.72;59.07
64880;HTU21D;51374;45.124;36.712;2022-08-30T14:29:10;31.67;59.25
64880;HTU21D;51374;45.124;36.712;2022-08-30T14:31:38;31.61;59.30
64880;HTU21D;51374;45.124;36.712;2022-08-30T14:34:04;31.52;59.36
64880;HTU21D;51374;45.124;36.712;2022-08-30T14:36:31;31.45;59.57
64880;HTU21D;51374;45.124;36.712;2022-08-30T14:38:58;31.40;59.64
64880;HTU21D;51374;45.124;36.712;2022-08-30T14:41:24;31.35;59.55
64880;HTU21D;51374;45.124;36.712;2022-08-30T14:43:50;31.29;59.52
64880;HTU21D;51374;45.124;36.712;2022-08-30T14:46:16;31.25;59.62
64880;HTU21D;51374;45.124;36.712;2022-08-30T14:48:42;31.21;59.61
64880;HTU21D;51374;45.124;36.712;2022-08-30T14:51:16;31.23;59.68
64880;HTU21D;51374;45.124;36.712;2022-08-30T14:53:43;31.22;59.63
64880;HTU21D;51374;45.124;36.712;2022-08-30T14:56:16;31.24;59.51
64880;HTU21D;51374;45.124;36.712;2022-08-30T14:58:42;31.21;59.41
64880;HTU21D;51374;45.124;36.712;2022-08-30T15:01:09;31.18;59.44
64880;HTU21D;51374;45.124;36.712;2022-08-30T15:03:37;31.19;59.52
64880;HTU21D;51374;45.124;36.712;2022-08-30T15:06:04;31.16;59.44
64880;HTU21D;51374;45.124;36.712;2022-08-30T15:08:31;31.05;59.59
64880;HTU21D;51374;45.124;36.712;2022-08-30T15:10:58;30.98;59.75
64880;HTU21D;51374;45.124;36.712;2022-08-30T15:13:25;30.97;59.66
64880;HTU21D;51374;45.124;36.712;2022-08-30T15:15:51;30.95;59.61
64880;HTU21D;51374;45.124;36.712;2022-08-30T15:18:18;30.92;59.59
64880;HTU21D;51374;45.124;36.712;2022-08-30T15:20:48;30.87;59.55
64880;HTU21D;51374;45.124;36.712;2022-08-30T15:23:15;30.76;59.73
64880;HTU21D;51374;45.124;36.712;2022-08-30T15:25:41;30.63;60.07
64880;HTU21D;51374;45.124;36.712;2022-08-30T15:28:07;30.48;60.40
64880;HTU21D;51374;45.124;36.712;2022-08-30T15:30:34;30.38;60.66
64880;HTU21D;51374;45.124;36.712;2022-08-30T15:33:01;30.47;60.58
64880;HTU21D;51374;45.124;36.712;2022-08-30T15:35:27;30.57;60.36
64880;HTU21D;51374;45.124;36.712;2022-08-30T15:37:53;30.65;60.24
64880;HTU21D;51374;45.124;36.712;2022-08-30T15:40:21;30.64;60.20
64880;HTU21D;51374;45.124;36.712;2022-08-30T15:42:49;30.62;60.22
64880;HTU21D;51374;45.124;36.712;2022-08-30T15:45:15;30.56;60.38
64880;HTU21D;51374;45.124;36.712;2022-08-30T15:47:41;30.41;60.57
64880;HTU21D;51374;45.124;36.712;2022-08-30T15:50:08;30.28;60.83
64880;HTU21D;51374;45.124;36.712;2022-08-30T15:52:34;30.11;61.22
64880;HTU21D;51374;45.124;36.712;2022-08-30T15:55:01;29.94;61.60
64880;HTU21D;51374;45.124;36.712;2022-08-30T15:57:27;29.74;62.12
64880;HTU21D;51374;45.124;36.712;2022-08-30T15:59:55;29.52;62.67
64880;HTU21D;51374;45.124;36.712;2022-08-30T16:02:21;29.31;63.18
64880;HTU21D;51374;45.124;36.712;2022-08-30T16:04:47;29.13;63.62
64880;HTU21D;51374;45.124;36.712;2022-08-30T16:07:13;28.98;64.01
64880;HTU21D;51374;45.124;36.712;2022-08-30T16:09:39;28.84;64.32
64880;HTU21D;51374;45.124;36.712;2022-08-30T16:12:06;28.70;64.67
64880;HTU21D;51374;45.124;36.712;2022-08-30T16:14:32;28.57;64.98
64880;HTU21D;51374;45.124;36.712;2022-08-30T16:16:59;28.45;65.23
64880;HTU21D;51374;45.124;36.712;2022-08-30T16:19:25;28.35;65.45
64880;HTU21D;51374;45.124;36.712;2022-08-30T16:21:51;28.24;65.69
64880;HTU21D;51374;45.124;36.712;2022-08-30T16:24:17;28.12;65.92
64880;HTU21D;51374;45.124;36.712;2022-08-30T16:26:45;28.02;66.27
64880;HTU21D;51374;45.124;36.712;2022-08-30T16:29:12;27.93;66.48
64880;HTU21D;51374;45.124;36.712;2022-08-30T16:31:39;27.84;66.68
64880;HTU21D;51374;45.124;36.712;2022-08-30T16:34:05;27.78;66.85
64880;HTU21D;51374;45.124;36.712;2022-08-30T16:36:32;27.69;67.01
64880;HTU21D;51374;45.124;36.712;2022-08-30T16:38:59;27.61;67.18